Time;durP1;ratioP1;P1;durP2;ratioP2;P2;SDS_P1;SDS_P2;PMS_P1;PMS_P2;Temp;Humidity;BMP_temperature;BMP_pressure;BME280_temperature;BME280_humidity;BME280_pressure;Samples;Min_cycle;Max_cycle;Signal;HPM_P1;HPM_P2
2021/05/23 00:01:25;;;;;;;;;;;11.80;99.90;;;;;;5074498;28;19911;-80
2021/05/23 00:03:51;;;;;;;;;;;11.80;99.90;;;;;;5074488;28;19963;-81
2021/05/23 00:06:17;;;;;;;;;;;11.70;99.90;;;;;;5074691;28;19909;-80
2021/05/23 00:08:42;;;;;;;;;;;11.70;99.90;;;;;;5074235;28;20278;-80
2021/05/23 00:11:09;;;;;;;0.88;0.77;;;11.70;99.90;;;;;;5073833;28;20066;-80
2021/05/23 00:13:38;;;;;;;1.87;0.63;;;11.60;99.90;;;;;;5073842;28;20054;-80
2021/05/23 00:16:07;;;;;;;2.10;1.38;;;11.60;99.90;;;;;;5073861;28;20270;-80
2021/05/23 00:18:35;;;;;;;1.40;1.17;;;11.60;99.90;;;;;;5073626;28;20060;-80
2021/05/23 00:21:03;;;;;;;1.00;0.80;;;11.70;99.90;;;;;;5073687;28;20066;-80
2021/05/23 00:23:28;;;;;;;2.20;1.33;;;11.70;99.90;;;;;;5074039;28;20552;-81
2021/05/23 00:25:54;;;;;;;;;;;11.60;99.90;;;;;;5073850;28;20020;-80
2021/05/23 00:28:20;;;;;;;;;;;11.60;99.90;;;;;;5073858;28;19962;-80
2021/05/23 00:30:45;;;;;;;;;;;11.60;99.90;;;;;;5073874;28;19904;-81
2021/05/23 00:33:11;;;;;;;;;;;11.70;99.90;;;;;;5073993;28;19908;-80
2021/05/23 00:35:37;;;;;;;;;;;11.70;99.90;;;;;;5074131;28;19954;-80
2021/05/23 00:38:03;;;;;;;;;;;11.70;99.90;;;;;;5073977;28;20429;-80
2021/05/23 00:40:29;;;;;;;;;;;11.70;99.90;;;;;;5073611;28;20275;-80
2021/05/23 00:42:54;;;;;;;;;;;11.70;99.90;;;;;;5074018;28;19904;-80
2021/05/23 00:45:20;;;;;;;;;;;11.60;99.90;;;;;;5073916;28;19978;-80
2021/05/23 00:47:46;;;;;;;;;;;11.50;99.90;;;;;;5073784;28;19961;-81
2021/05/23 00:50:16;;;;;;;;;;;11.50;99.90;;;;;;5073349;28;19911;-80
2021/05/23 00:52:41;;;;;;;;;;;11.40;99.90;;;;;;5073642;28;19965;-80
2021/05/23 00:55:07;;;;;;;;;;;11.50;99.90;;;;;;5073573;28;20325;-80
2021/05/23 00:57:32;;;;;;;;;;;11.50;99.90;;;;;;5073629;28;19911;-80
2021/05/23 00:59:58;;;;;;;;;;;11.40;99.90;;;;;;5073050;28;19904;-80
2021/05/23 01:02:43;;;;;;;;;;;11.40;99.90;;;;;;5073876;28;19904;-80
2021/05/23 01:05:11;;;;;;;;;;;11.30;99.90;;;;;;5072817;28;20415;-80
2021/05/23 01:07:38;;;;;;;;;;;11.40;99.90;;;;;;5073561;28;19908;-80
2021/05/23 01:10:06;;;;;;;;;;;11.40;99.90;;;;;;5073068;28;19904;-80
2021/05/23 01:12:46;;;;;;;;;;;11.40;99.90;;;;;;5073100;28;19923;-80
2021/05/23 01:15:12;;;;;;;;;;;11.40;99.90;;;;;;5073446;28;19981;-81
2021/05/23 01:17:39;;;;;;;;;;;11.40;99.90;;;;;;5073809;28;19904;-79
2021/05/23 01:20:09;;;;;;;;;;;11.40;99.90;;;;;;5072962;28;19966;-79
2021/05/23 01:22:45;;;;;;;;;;;11.50;99.90;;;;;;5073267;28;19904;-79
2021/05/23 01:25:17;;;;;;;;;;;11.50;99.90;;;;;;5073141;28;19967;-79
2021/05/23 01:27:46;;;;;;;;;;;11.60;99.90;;;;;;5073217;28;20287;-79
2021/05/23 01:30:14;;;;;;;;;;;11.70;99.90;;;;;;5072765;28;19974;-79
2021/05/23 01:32:41;;;;;;;;;;;11.60;99.90;;;;;;5074369;28;20318;-79
2021/05/23 01:35:09;;;;;;;;;;;11.60;99.90;;;;;;5072797;28;19920;-79
2021/05/23 01:37:35;;;;;;;;;;;11.60;99.90;;;;;;5072998;28;19995;-79
2021/05/23 01:40:01;;;;;;;;;;;11.70;99.90;;;;;;5072528;28;19971;-79
2021/05/23 01:42:27;;;;;;;;;;;11.70;99.90;;;;;;5073067;28;20399;-79
2021/05/23 01:44:53;;;;;;;;;;;11.60;99.90;;;;;;5072975;28;20007;-79
2021/05/23 01:47:18;;;;;;;;;;;11.60;99.90;;;;;;5073896;28;19908;-79
2021/05/23 01:49:44;;;;;;;;;;;11.60;99.90;;;;;;5072707;28;19943;-79
2021/05/23 01:52:10;;;;;;;;;;;11.50;99.90;;;;;;5072685;28;19905;-79
2021/05/23 01:54:35;;;;;;;;;;;11.60;99.90;;;;;;5073870;28;19951;-79
2021/05/23 01:57:01;;;;;;;;;;;11.50;99.90;;;;;;5072763;28;20350;-79
2021/05/23 01:59:26;;;;;;;;;;;11.50;99.90;;;;;;5072313;28;19904;-79
2021/05/23 02:01:52;;;;;;;;;;;11.50;99.90;;;;;;5072478;28;20317;-79
2021/05/23 02:04:17;;;;;;;;;;;11.60;99.90;;;;;;5072371;28;19904;-79
2021/05/23 02:06:43;;;;;;;;;;;11.60;99.90;;;;;;5072295;28;20325;-79
2021/05/23 02:09:08;;;;;;;;;;;11.60;99.90;;;;;;5072131;28;19911;-79
2021/05/23 02:11:33;;;;;;;;;;;11.70;99.90;;;;;;5073548;28;20066;-79
2021/05/23 02:13:59;;;;;;;;;;;11.70;99.90;;;;;;5072324;28;20410;-80
2021/05/23 02:16:24;;;;;;;;;;;11.70;99.90;;;;;;5071852;28;19904;-79
2021/05/23 02:18:50;;;;;;;;;;;11.80;99.90;;;;;;5072674;28;19942;-79
2021/05/23 02:21:15;;;;;;;;;;;11.70;99.90;;;;;;5072146;28;20279;-79
2021/05/23 02:23:51;;;;;;;;;;;11.70;99.90;;;;;;5072073;28;19905;-79
2021/05/23 02:26:17;;;;;;;;;;;11.70;99.90;;;;;;5072208;28;20355;-79
2021/05/23 02:28:42;;;;;;;;;;;11.60;99.90;;;;;;5072050;28;19963;-79
2021/05/23 02:31:08;;;;;;;;;;;11.50;99.90;;;;;;5072136;28;19957;-79
2021/05/23 02:33:33;;;;;;;;;;;11.40;99.90;;;;;;5071844;28;19909;-79
2021/05/23 02:35:58;;;;;;;;;;;11.40;99.90;;;;;;5072110;28;19911;-79
2021/05/23 02:38:25;;;;;;;;;;;11.30;99.90;;;;;;5071789;28;19930;-79
2021/05/23 02:40:51;;;;;;;;;;;11.30;99.90;;;;;;5071703;28;20394;-79
2021/05/23 02:43:17;;;;;;;;;;;11.30;99.90;;;;;;5071874;28;20002;-79
2021/05/23 02:45:43;;;;;;;;;;;11.30;99.90;;;;;;5072096;28;19930;-79
2021/05/23 02:48:08;;;;;;;;;;;11.30;99.90;;;;;;5071861;28;19909;-79
2021/05/23 02:50:35;;;;;;;;;;;11.20;99.90;;;;;;5071411;28;19994;-79
2021/05/23 02:53:01;;;;;;;;;;;11.10;99.90;;;;;;5072028;28;19944;-79
2021/05/23 02:55:27;;;;;;;;;;;11.10;99.90;;;;;;5072855;28;19904;-79
2021/05/23 02:57:56;;;;;;;;;;;11.00;99.90;;;;;;5071818;28;19954;-79
2021/05/23 03:00:22;;;;;;;;;;;11.00;99.90;;;;;;5071391;28;19915;-79
2021/05/23 03:02:48;;;;;;;;;;;11.00;99.90;;;;;;5072793;28;19929;-79
2021/05/23 03:05:15;;;;;;;;;;;11.10;99.90;;;;;;5072937;28;20438;-79
2021/05/23 03:07:42;;;;;;;;;;;11.10;99.90;;;;;;5071612;28;19915;-79
2021/05/23 03:10:18;;;;;;;;;;;11.20;99.90;;;;;;5071552;28;19909;-80
2021/05/23 03:12:44;;;;;;;;;;;11.10;99.90;;;;;;5071499;28;20083;-79
2021/05/23 03:15:11;;;;;;;;;;;11.10;99.90;;;;;;5071536;28;19911;-79
2021/05/23 03:17:37;;;;;;;;;;;11.10;99.90;;;;;;5071363;28;19911;-80
2021/05/23 03:20:03;;;;;;;;;;;11.00;99.90;;;;;;5071394;28;19991;-79
2021/05/23 03:22:29;;;;;;;;;;;10.90;99.90;;;;;;5071305;28;19958;-80
2021/05/23 03:24:54;;;;;;;;;;;10.90;99.90;;;;;;5072945;28;19905;-80
2021/05/23 03:27:20;;;;;;;;;;;10.80;99.90;;;;;;5071377;28;19912;-79
2021/05/23 03:29:45;;;;;;;;;;;10.90;99.90;;;;;;5074130;28;19905;-80
2021/05/23 03:32:11;;;;;;;;;;;10.90;99.90;;;;;;5075232;28;19912;-80
2021/05/23 03:34:36;;;;;;;;;;;10.80;99.90;;;;;;5075341;28;20287;-80
2021/05/23 03:37:01;;;;;;;;;;;10.80;99.90;;;;;;5076396;28;19927;-80
2021/05/23 03:39:27;;;;;;;;;;;10.80;99.90;;;;;;5076300;28;19916;-80
2021/05/23 03:41:52;;;;;;;;;;;10.80;99.90;;;;;;5075164;28;19911;-79
2021/05/23 03:44:18;;;;;;;;;;;10.80;99.90;;;;;;5075035;28;19905;-80
2021/05/23 03:46:43;;;;;;;;;;;10.60;99.90;;;;;;5074987;28;19905;-80
2021/05/23 03:49:09;;;;;;;;;;;10.60;99.90;;;;;;5075009;28;19911;-80
2021/05/23 03:51:34;;;;;;;;;;;10.60;99.90;;;;;;5075121;28;20362;-79
2021/05/23 03:54:00;;;;;;;;;;;10.60;99.90;;;;;;5075001;28;19970;-80
2021/05/23 03:56:25;;;;;;;;;;;10.60;99.90;;;;;;5075007;28;19959;-79
2021/05/23 03:58:51;;;;;;;;;;;10.50;99.90;;;;;;5074748;28;19908;-79
2021/05/23 04:01:17;;;;;;;;;;;10.50;99.90;;;;;;5075983;28;19954;-79
2021/05/23 04:03:42;;;;;;;;;;;10.50;99.90;;;;;;5076076;28;20074;-79
2021/05/23 04:06:08;;;;;;;;;;;10.50;99.90;;;;;;5074865;28;19904;-79
2021/05/23 04:08:34;;;;;;;;;;;10.50;99.90;;;;;;5074515;28;20275;-79
2021/05/23 04:11:04;;;;;;;;;;;10.50;99.90;;;;;;5074523;28;19912;-79
2021/05/23 04:13:32;;;;;;;;;;;10.50;99.90;;;;;;5075720;28;19911;-79
2021/05/23 04:15:57;;;;;;;;;;;10.40;99.90;;;;;;5074424;28;19958;-79
2021/05/23 04:18:23;;;;;;;;;;;10.50;99.90;;;;;;5074292;28;19904;-80
2021/05/23 04:20:48;;;;;;;;;;;10.70;99.90;;;;;;5074401;28;19904;-79
2021/05/23 04:23:14;;;;;;;;;;;10.70;99.90;;;;;;5074488;28;19904;-79
2021/05/23 04:25:40;;;;;;;;;;;10.70;99.90;;;;;;5074805;28;19940;-79
2021/05/23 04:28:05;;;;;;;;;;;10.80;99.90;;;;;;5074284;28;19983;-79
2021/05/23 04:30:31;;;;;;;;;;;11.00;99.90;;;;;;5075073;28;19916;-79
2021/05/23 04:32:57;;;;;;;;;;;11.20;99.90;;;;;;5074229;28;19905;-79
2021/05/23 04:35:22;;;;;;;;;;;11.30;99.90;;;;;;5074366;28;20287;-80
2021/05/23 04:37:48;;;;;;;;;;;11.40;99.90;;;;;;5074211;28;19912;-80
2021/05/23 04:40:15;;;;;;;;;;;11.50;99.90;;;;;;5074472;28;19927;-79
2021/05/23 04:42:41;;;;;;;;;;;11.60;99.90;;;;;;5071635;28;19912;-80
2021/05/23 04:45:07;;;;;;;;;;;11.50;99.90;;;;;;5052837;28;19905;-78
2021/05/23 04:47:33;;;;;;;;;;;11.40;99.90;;;;;;5052939;28;20335;-79
2021/05/23 04:49:59;;;;;;;;;;;11.40;99.90;;;;;;5051451;28;19919;-79
2021/05/23 04:52:24;;;;;;;;;;;11.40;99.90;;;;;;5053747;28;19995;-79
2021/05/23 04:54:50;;;;;;;;;;;11.50;99.90;;;;;;5052887;28;20215;-79
2021/05/23 04:57:15;;;;;;;;;;;11.50;99.90;;;;;;5052658;28;20037;-79
2021/05/23 04:59:41;;;;;;;;;;;11.50;99.90;;;;;;5052363;28;20386;-79
2021/05/23 05:02:06;;;;;;;;;;;11.50;99.90;;;;;;5053990;28;19905;-80
2021/05/23 05:04:32;;;;;;;;;;;11.70;99.90;;;;;;5052760;28;19904;-79
2021/05/23 05:06:57;;;;;;;;;;;11.90;99.90;;;;;;5052387;28;19916;-79
2021/05/23 05:09:23;;;;;;;;;;;12.10;99.90;;;;;;5052337;28;19905;-79
2021/05/23 05:11:49;;;;;;;;;;;12.20;99.90;;;;;;5052462;28;20363;-79
2021/05/23 05:14:14;;;;;;;;;;;12.50;99.90;;;;;;5052308;28;19904;-79
2021/05/23 05:16:40;;;;;;;;;;;12.40;99.90;;;;;;5052548;28;19909;-79
2021/05/23 05:19:07;;;;;;;;;;;12.40;99.90;;;;;;5052176;28;20346;-79
2021/05/23 05:21:33;;;;;;;;;;;12.60;99.90;;;;;;5075386;23;20011;-80
2021/05/23 05:23:58;;;;;;;;;;;12.90;99.90;;;;;;5055930;28;19951;-80
2021/05/23 05:26:23;;;;;;;;;;;13.40;99.90;;;;;;5055567;28;19948;-80
2021/05/23 05:28:49;;;;;;;;;;;13.60;99.90;;;;;;5073293;28;19959;-80
2021/05/23 05:31:14;;;;;;;;;;;13.70;99.90;;;;;;5064362;28;19911;-80
2021/05/23 05:33:40;;;;;;;0.35;0.20;;;15.00;99.90;;;;;;5072638;28;20367;-80
2021/05/23 05:36:06;;;;;;;0.95;0.30;;;16.60;99.90;;;;;;5072970;28;20059;-81
2021/05/23 05:38:31;;;;;;;;;;;18.70;99.90;;;;;;5076057;28;20028;-81
2021/05/23 05:40:57;;;;;;;;;;;19.30;99.90;;;;;;5075010;28;20578;-79
2021/05/23 05:43:24;;;;;;;;;;;17.80;99.90;;;;;;5063977;28;19912;-80
2021/05/23 05:45:50;;;;;;;;;;;16.90;99.90;;;;;;5064824;28;19954;-80
2021/05/23 05:48:15;;;;;;;;;;;15.90;99.90;;;;;;5067845;28;19908;-78
2021/05/23 05:50:41;;;;;;;;;;;15.40;99.90;;;;;;5061883;28;19904;-78
2021/05/23 05:53:06;;;;;;;;;;;14.50;99.90;;;;;;5052315;28;19946;-77
2021/05/23 05:55:31;;;;;;;;;;;13.70;99.90;;;;;;5051189;28;19909;-78
2021/05/23 05:57:57;;;;;;;;;;;13.40;99.90;;;;;;5051484;28;19912;-79
2021/05/23 06:00:22;;;;;;;;;;;13.60;99.90;;;;;;5050186;28;20003;-79
2021/05/23 06:02:48;;;;;;;;;;;14.70;99.90;;;;;;5056797;28;19909;-78
2021/05/23 06:05:13;;;;;;;;;;;17.40;99.90;;;;;;5061260;28;19909;-81
2021/05/23 06:07:39;;;;;;;;;;;20.10;99.90;;;;;;5073346;28;19967;-80
2021/05/23 06:10:05;;;;;;;;;;;21.80;97.00;;;;;;5066209;28;19908;-81
2021/05/23 06:12:30;;;;;;;;;;;22.30;91.60;;;;;;5056438;28;19909;-80
2021/05/23 06:14:56;;;;;;;2.35;0.30;;;21.80;90.80;;;;;;5058693;28;20461;-79
2021/05/23 06:17:21;;;;;;;0.88;0.30;;;22.00;88.70;;;;;;5095357;28;20054;-81
2021/05/23 06:19:47;;;;;;;;;;;22.30;87.80;;;;;;5096212;28;20026;-81
2021/05/23 06:22:13;;;;;;;;;;;23.70;84.90;;;;;;5095557;28;19978;-80
2021/05/23 06:24:39;;;;;;;1.87;0.10;;;24.60;77.60;;;;;;5096577;28;19903;-82
2021/05/23 06:27:04;;;;;;;0.10;0.10;;;24.10;77.00;;;;;;5095184;28;19914;-79
2021/05/23 06:29:30;;;;;;;0.75;0.30;;;24.20;74.90;;;;;;5095094;28;19916;-80
2021/05/23 06:31:55;;;;;;;1.02;0.30;;;23.40;77.00;;;;;;5095061;28;20070;-82
2021/05/23 06:34:21;;;;;;;0.82;0.50;;;24.00;75.50;;;;;;5095209;28;20035;-81
2021/05/23 06:36:47;;;;;;;1.35;0.47;;;23.50;74.00;;;;;;5096529;28;20021;-82
2021/05/23 06:39:12;;;;;;;0.10;0.10;;;24.40;74.60;;;;;;5095728;28;20023;-82
2021/05/23 06:41:38;;;;;;;0.85;0.30;;;26.40;69.80;;;;;;5094955;28;20039;-80
2021/05/23 06:44:04;;;;;;;0.43;0.43;;;27.40;65.10;;;;;;5095568;28;20069;-80
2021/05/23 06:46:30;;;;;;;;;;;27.50;63.60;;;;;;5095251;28;20107;-81
2021/05/23 06:48:55;;;;;;;1.20;0.50;;;26.10;62.80;;;;;;5095149;28;19947;-80
2021/05/23 06:51:21;;;;;;;;;;;23.40;68.30;;;;;;5095142;28;20198;-81
2021/05/23 06:53:47;;;;;;;;;;;23.20;69.80;;;;;;5096929;28;19979;-80
2021/05/23 06:56:13;;;;;;;;;;;21.90;73.40;;;;;;5095602;28;20399;-82
2021/05/23 06:58:40;;;;;;;;;;;20.60;77.80;;;;;;5096522;28;19903;-81
2021/05/23 07:01:06;;;;;;;;;;;19.80;81.00;;;;;;5096761;28;19911;-81
2021/05/23 07:03:31;;;;;;;;;;;19.50;85.10;;;;;;5095630;28;19911;-82
2021/05/23 07:05:57;;;;;;;;;;;19.00;84.10;;;;;;5097635;28;19943;-82
2021/05/23 07:08:22;;;;;;;;;;;18.50;89.00;;;;;;5095904;28;19934;-80
2021/05/23 07:10:48;;;;;;;0.43;0.43;;;19.30;88.10;;;;;;5095567;28;20355;-80
2021/05/23 07:13:14;;;;;;;;;;;22.80;82.80;;;;;;5095134;28;20021;-82
2021/05/23 07:15:39;;;;;;;;;;;23.00;75.10;;;;;;5095934;28;19911;-83
2021/05/23 07:18:05;;;;;;;;;;;23.40;75.30;;;;;;5095495;28;19911;-81
2021/05/23 07:20:30;;;;;;;;;;;24.70;72.30;;;;;;5095170;28;19915;-81
2021/05/23 07:22:56;;;;;;;;;;;24.90;70.10;;;;;;5095567;28;19923;-81
2021/05/23 07:25:21;;;;;;;;;;;23.80;71.30;;;;;;5095661;28;19994;-80
2021/05/23 07:27:47;;;;;;;0.45;0.15;;;21.70;75.40;;;;;;5084770;28;19913;-79
2021/05/23 07:30:13;;;;;;;;;;;20.30;82.90;;;;;;5073842;28;20028;-80
2021/05/23 07:32:38;;;;;;;;;;;20.00;83.10;;;;;;5075349;28;19904;-81
2021/05/23 07:35:04;;;;;;;;;;;19.80;87.90;;;;;;5075973;28;19905;-81
2021/05/23 07:37:30;;;;;;;;;;;21.70;85.30;;;;;;5076878;28;19951;-80
2021/05/23 07:39:56;;;;;;;;;;;23.90;75.70;;;;;;5075757;28;19911;-81
2021/05/23 07:42:21;;;;;;;;;;;21.60;75.40;;;;;;5076266;28;19904;-82
2021/05/23 07:44:47;;;;;;;;;;;21.10;78.50;;;;;;5076000;28;19905;-80
2021/05/23 07:47:12;;;;;;;;;;;22.10;77.40;;;;;;5076851;28;20002;-82
2021/05/23 07:49:41;;;;;;;;;;;23.70;75.20;;;;;;5075627;28;19911;-81
2021/05/23 07:52:07;;;;;;;;;;;22.70;73.90;;;;;;5075901;28;19911;-82
2021/05/23 07:54:33;;;;;;;;;;;23.20;74.80;;;;;;5074665;28;19908;-82
2021/05/23 07:56:58;;;;;;;0.20;0.20;;;22.20;75.20;;;;;;5065773;28;20279;-80
2021/05/23 07:59:24;;;;;;;;;;;22.20;76.30;;;;;;5060204;28;20013;-81
2021/05/23 08:01:49;;;;;;;0.57;0.50;;;21.90;76.90;;;;;;5062135;28;19912;-80
2021/05/23 08:04:15;;;;;;;;;;;22.30;74.90;;;;;;5062474;28;20363;-82
2021/05/23 08:06:40;;;;;;;;;;;20.80;77.30;;;;;;5066462;28;19905;-82
2021/05/23 08:09:06;;;;;;;;;;;19.60;80.90;;;;;;5062305;28;19940;-81
2021/05/23 08:11:31;;;;;;;;;;;18.90;83.40;;;;;;5065424;28;20401;-81
2021/05/23 08:13:57;;;;;;;;;;;19.90;83.30;;;;;;5063201;28;19905;-81
2021/05/23 08:16:22;;;;;;;;;;;19.40;83.40;;;;;;5064340;28;20371;-81
2021/05/23 08:18:47;;;;;;;;;;;20.80;84.10;;;;;;5056422;28;19905;-80
2021/05/23 08:21:13;;;;;;;;;;;23.60;76.60;;;;;;5056250;28;19966;-80
2021/05/23 08:23:39;;;;;;;;;;;24.40;69.10;;;;;;5057447;28;19909;-81
2021/05/23 08:26:04;;;;;;;;;;;21.80;74.50;;;;;;5056512;28;19911;-80
2021/05/23 08:28:32;;;;;;;;;;;21.00;79.50;;;;;;5056878;28;19909;-81
2021/05/23 08:30:58;;;;;;;1.23;0.90;;;21.60;77.50;;;;;;5056794;28;20351;-82
2021/05/23 08:33:24;;;;;;;0.75;0.40;;;21.20;76.20;;;;;;5056963;28;20403;-80
2021/05/23 08:35:49;;;;;;;;;;;20.50;81.10;;;;;;5056760;28;20063;-82
2021/05/23 08:38:14;;;;;;;;;;;21.10;80.30;;;;;;5056839;28;20398;-81
2021/05/23 08:40:40;;;;;;;;;;;20.70;80.00;;;;;;5057350;28;19911;-80
2021/05/23 08:43:10;;;;;;;;;;;20.40;82.00;;;;;;5055176;28;20360;-80
2021/05/23 08:45:37;;;;;;;3.33;0.32;;;20.80;81.40;;;;;;5055949;28;20382;-80
2021/05/23 08:48:04;;;;;;;1.27;0.30;;;21.60;79.40;;;;;;5054907;28;20068;-78
2021/05/23 08:50:29;;;;;;;;;;;20.70;81.80;;;;;;5056183;28;20025;-81
2021/05/23 08:52:58;;;;;;;;;;;19.90;84.10;;;;;;5059632;28;19911;-77
2021/05/23 08:55:24;;;;;;;;;;;19.00;85.50;;;;;;5057983;28;19905;-83
2021/05/23 08:57:50;;;;;;;;;;;18.20;87.10;;;;;;5057225;28;19904;-82
2021/05/23 09:00:16;;;;;;;;;;;17.80;89.60;;;;;;5055005;28;19905;-81
2021/05/23 09:02:52;;;;;;;;;;;17.60;91.40;;;;;;5055772;28;20461;-81
2021/05/23 09:05:27;;;;;;;;;;;17.60;90.50;;;;;;5055841;28;20280;-79
2021/05/23 09:07:53;;;;;;;;;;;19.20;90.40;;;;;;5056849;28;20066;-79
2021/05/23 09:10:22;;;;;;;;;;;19.60;86.10;;;;;;5056532;28;20336;-78
2021/05/23 09:12:48;;;;;;;;;;;18.90;87.60;;;;;;5057381;28;20435;-81
2021/05/23 09:15:13;;;;;;;;;;;18.60;90.90;;;;;;5057909;28;20015;-82
2021/05/23 09:17:39;;;;;;;;;;;17.80;91.40;;;;;;5057791;28;19905;-83
2021/05/23 09:20:05;;;;;;;;;;;18.20;92.30;;;;;;5057456;28;19905;-81
2021/05/23 09:22:30;;;;;;;;;;;19.00;90.50;;;;;;5057966;28;19913;-80
2021/05/23 09:25:04;;;;;;;;;;;19.80;89.30;;;;;;5057859;28;19905;-79
2021/05/23 09:27:30;;;;;;;;;;;19.40;87.90;;;;;;5056825;28;20363;-83
2021/05/23 09:30:18;;;;;;;;;;;19.20;88.70;;;;;;5057114;28;19905;-81
2021/05/23 09:32:45;;;;;;;;;;;18.40;91.80;;;;;;5058308;28;20364;-81
2021/05/23 09:35:11;;;;;;;;;;;17.70;92.10;;;;;;5056649;28;19905;-82
2021/05/23 09:37:37;;;;;;;;;;;17.00;94.20;;;;;;5057467;28;19911;-83
2021/05/23 09:40:14;;;;;;;;;;;17.50;94.70;;;;;;5056607;28;19999;-83
2021/05/23 09:42:53;;;;;;;;;;;19.20;94.40;;;;;;5057032;28;19905;-82
2021/05/23 09:45:19;;;;;;;;;;;20.70;90.00;;;;;;5057621;28;19912;-82
2021/05/23 09:47:51;;;;;;;;;;;22.60;84.80;;;;;;5057340;28;19955;-82
2021/05/23 09:50:16;;;;;;;;;;;22.40;84.50;;;;;;5058463;28;19909;-85
2021/05/23 09:52:42;;;;;;;;;;;21.80;82.90;;;;;;5058257;28;19911;-82
2021/05/23 09:55:07;;;;;;;;;;;20.50;84.70;;;;;;5057819;28;19904;-83
2021/05/23 09:57:33;;;;;;;;;;;19.90;89.80;;;;;;5059192;28;20398;-83
2021/05/23 10:00:05;;;;;;;;;;;19.40;88.20;;;;;;5057312;28;20003;-81
2021/05/23 10:02:30;;;;;;;;;;;19.40;90.80;;;;;;5058380;28;19905;-83
2021/05/23 10:05:06;;;;;;;0.38;0.30;;;19.40;89.30;;;;;;5057147;28;19911;-83
2021/05/23 10:07:33;;;;;;;;;;;19.10;91.80;;;;;;5058033;28;20036;-81
2021/05/23 10:09:58;;;;;;;;;;;18.80;93.60;;;;;;5057404;28;20378;-84
2021/05/23 10:12:24;;;;;;;0.13;0.10;;;18.50;93.70;;;;;;5057271;28;19904;-83
2021/05/23 10:14:49;;;;;;;;;;;18.50;92.90;;;;;;5057819;28;20420;-83
2021/05/23 10:17:15;;;;;;;;;;;18.00;93.80;;;;;;5058187;28;19995;-82
2021/05/23 10:19:40;;;;;;;;;;;17.80;94.20;;;;;;5058418;28;19905;-86
2021/05/23 10:22:06;;;;;;;;;;;17.90;95.80;;;;;;5056852;28;19967;-83
2021/05/23 10:24:32;;;;;;;;;;;20.00;96.50;;;;;;5056946;28;19904;-85
2021/05/23 10:27:12;;;;;;;;;;;20.90;90.80;;;;;;5055039;28;19904;-83
2021/05/23 10:29:38;;;;;;;;;;;20.80;91.50;;;;;;5054779;28;19947;-84
2021/05/23 10:32:14;;;;;;;;;;;20.60;91.70;;;;;;5055853;28;19905;-83
2021/05/23 10:34:43;;;;;;;2.15;0.20;;;20.50;92.10;;;;;;5055068;28;20353;-84
2021/05/23 10:37:13;;;;;;;;;;;19.90;91.90;;;;;;5057301;28;20096;-83
2021/05/23 10:39:43;;;;;;;;;;;18.90;93.40;;;;;;5055230;28;19904;-85
2021/05/23 10:42:12;;;;;;;;;;;17.90;99.90;;;;;;5056862;28;19958;-81
2021/05/23 10:44:42;;;;;;;;;;;17.20;99.90;;;;;;5056892;28;19904;-84
2021/05/23 10:47:12;;;;;;;;;;;17.70;99.90;;;;;;5056476;28;19912;-82
2021/05/23 10:49:49;;;;;;;;;;;18.00;99.90;;;;;;5055393;28;19911;-82
2021/05/23 10:52:15;;;;;;;;;;;18.50;99.90;;;;;;5056261;28;19958;-82
2021/05/23 10:54:41;;;;;;;;;;;18.00;99.90;;;;;;5055744;28;20260;-84
2021/05/23 10:57:06;;;;;;;;;;;17.40;99.90;;;;;;5055309;28;19912;-81
2021/05/23 10:59:32;;;;;;;;;;;16.50;99.90;;;;;;5051905;28;20005;-82
2021/05/23 11:01:58;;;;;;;;;;;16.20;99.90;;;;;;5051671;28;19912;-80
2021/05/23 11:04:24;;;;;;;;;;;15.50;99.90;;;;;;5051079;28;19905;-84
2021/05/23 11:06:50;;;;;;;;;;;15.20;99.90;;;;;;5050820;28;19946;-82
2021/05/23 11:09:24;;;;;;;;;;;15.20;99.90;;;;;;5055182;28;19958;-84
2021/05/23 11:11:49;;;;;;;;;;;17.10;99.90;;;;;;5057345;28;19904;-84
2021/05/23 11:14:16;;;;;;;;;;;19.70;99.90;;;;;;5057155;28;19912;-85
2021/05/23 11:16:48;;;;;;;;;;;21.60;99.90;;;;;;5056399;28;19912;-85
2021/05/23 11:19:14;;;;;;;;;;;22.90;99.90;;;;;;5055076;28;19909;-85
2021/05/23 11:21:40;;;;;;;;;;;23.30;99.90;;;;;;5054926;28;19913;-84
2021/05/23 11:24:06;;;;;;;;;;;22.70;99.90;;;;;;5054844;28;20279;-85
2021/05/23 11:26:32;;;;;;;;;;;21.80;99.90;;;;;;5054150;28;20025;-84
2021/05/23 11:28:59;;;;;;;;;;;21.50;99.90;;;;;;5055611;28;20009;-83
2021/05/23 11:31:25;;;;;;;;;;;20.40;99.90;;;;;;5055524;28;19955;-82
2021/05/23 11:33:51;;;;;;;;;;;19.50;99.90;;;;;;5056207;28;19911;-84
2021/05/23 11:36:17;;;;;;;;;;;18.60;99.90;;;;;;5058477;28;19908;-87
2021/05/23 11:38:42;;;;;;;;;;;18.20;99.90;;;;;;5061543;28;20015;-84
2021/05/23 11:41:08;;;;;;;;;;;17.70;99.90;;;;;;5057579;28;19955;-85
2021/05/23 11:43:33;;;;;;;;;;;17.20;99.90;;;;;;5056148;28;19912;-83
2021/05/23 11:46:01;;;;;;;;;;;16.80;99.90;;;;;;5053192;28;19908;-81
2021/05/23 11:48:31;;;;;;;;;;;16.10;99.90;;;;;;5053588;28;19908;-83
2021/05/23 11:50:57;;;;;;;;;;;15.70;99.90;;;;;;5056946;28;19904;-83
2021/05/23 11:53:33;;;;;;;;;;;15.60;99.90;;;;;;5058534;28;19958;-83
2021/05/23 11:55:59;;;;;;;;;;;15.70;99.90;;;;;;5058913;28;19905;-83
2021/05/23 11:58:24;;;;;;;;;;;16.10;99.90;;;;;;5059605;28;19905;-83
2021/05/23 12:00:50;;;;;;;;;;;16.10;99.90;;;;;;5059268;28;19991;-83
2021/05/23 12:03:15;;;;;;;;;;;16.40;99.90;;;;;;5059273;28;19912;-83
2021/05/23 12:05:44;;;;;;;;;;;16.90;99.90;;;;;;5064999;28;19965;-85
2021/05/23 12:08:17;;;;;;;;;;;17.60;99.90;;;;;;5067938;28;19909;-83
2021/05/23 12:10:43;;;;;;;;;;;18.30;99.90;;;;;;5059244;28;20015;-83
2021/05/23 12:13:08;;;;;;;;;;;18.20;99.90;;;;;;5060962;28;20318;-84
2021/05/23 12:15:34;;;;;;;;;;;18.50;99.90;;;;;;5062246;28;19919;-85
2021/05/23 12:17:59;;;;;;;;;;;18.80;99.90;;;;;;5060576;28;20314;-83
2021/05/23 12:20:26;;;;;;;;;;;19.00;99.90;;;;;;5060221;28;19908;-82
2021/05/23 12:22:53;;;;;;;;;;;19.20;99.90;;;;;;5067921;28;19940;-79
2021/05/23 12:25:20;;;;;;;;;;;19.10;99.90;;;;;;5063717;28;20029;-82
2021/05/23 12:27:46;;;;;;;;;;;19.60;99.90;;;;;;5069851;28;19912;-81
2021/05/23 12:30:12;;;;;;;;;;;20.00;99.90;;;;;;5070209;28;20011;-82
2021/05/23 12:32:40;;;;;;;;;;;20.10;99.90;;;;;;5069786;28;19905;-82
2021/05/23 12:35:25;;;;;;;;;;;20.00;99.90;;;;;;5070320;28;20025;-81
2021/05/23 12:37:52;;;;;;;;;;;20.60;99.90;;;;;;5069961;28;20003;-82
2021/05/23 12:40:19;;;;;;;;;;;20.50;99.90;;;;;;5070636;28;20067;-82
2021/05/23 12:42:44;;;;;;;;;;;20.30;99.90;;;;;;5070919;28;20059;-80
2021/05/23 12:45:10;;;;;;;;;;;19.90;99.90;;;;;;5070830;28;19913;-82
2021/05/23 12:47:46;;;;;;;;;;;19.40;99.90;;;;;;5071168;28;20046;-81
2021/05/23 12:50:11;;;;;;;;;;;19.50;99.90;;;;;;5070481;28;20474;-80
2021/05/23 12:52:37;;;;;;;;;;;19.30;99.90;;;;;;5071213;28;20028;-82
2021/05/23 12:55:03;;;;;;;;;;;19.30;99.90;;;;;;5070435;28;20063;-80
2021/05/23 12:57:29;;;;;;;0.90;0.30;;;19.70;99.90;;;;;;5069342;28;20446;-80
2021/05/23 12:59:55;;;;;;;;;;;20.50;99.90;;;;;;5068826;28;19904;-79
2021/05/23 13:02:21;;;;;;;;;;;19.70;99.90;;;;;;5068813;28;19938;-78
2021/05/23 13:04:48;;;;;;;;;;;18.90;99.90;;;;;;5071260;28;19905;-81
2021/05/23 13:07:13;;;;;;;;;;;18.00;99.90;;;;;;5060344;28;19920;-82
2021/05/23 13:09:40;;;;;;;;;;;16.90;99.90;;;;;;5053086;28;19904;-82
2021/05/23 13:12:09;;;;;;;;;;;16.20;99.90;;;;;;5053668;28;19912;-82
2021/05/23 13:14:35;;;;;;;;;;;16.00;99.90;;;;;;5062687;28;19935;-83
2021/05/23 13:17:03;;;;;;;;;;;16.20;99.90;;;;;;5065138;28;19909;-79
2021/05/23 13:19:30;;;;;;;;;;;16.50;99.90;;;;;;5058062;28;20356;-81
2021/05/23 13:21:57;;;;;;;;;;;17.30;99.90;;;;;;5058805;28;19912;-80
2021/05/23 13:24:24;;;;;;;;;;;18.20;99.90;;;;;;5057907;28;19928;-78
2021/05/23 13:26:51;;;;;;;;;;;18.90;99.90;;;;;;5056063;28;20018;-78
2021/05/23 13:29:16;;;;;;;;;;;19.30;99.90;;;;;;5056899;28;20284;-78
2021/05/23 13:31:42;;;;;;;;;;;19.30;99.90;;;;;;5056711;28;19905;-81
2021/05/23 13:34:08;;;;;;;;;;;19.20;99.90;;;;;;5055687;28;20413;-78
2021/05/23 13:36:34;;;;;;;;;;;18.90;99.80;;;;;;5055835;28;19919;-79
2021/05/23 13:38:59;;;;;;;;;;;18.80;99.60;;;;;;5056484;28;19904;-80
2021/05/23 13:41:25;;;;;;;;;;;18.60;99.90;;;;;;5057064;28;19909;-81
2021/05/23 13:43:50;;;;;;;;;;;18.10;99.60;;;;;;5057501;28;19967;-80
2021/05/23 13:46:16;;;;;;;;;;;18.00;99.90;;;;;;5058194;28;20443;-78
2021/05/23 13:48:41;;;;;;;;;;;18.30;99.90;;;;;;5056763;28;20102;-78
2021/05/23 13:51:07;;;;;;;;;;;18.70;99.90;;;;;;5056990;28;19915;-80
2021/05/23 13:53:32;;;;;;;;;;;19.10;99.90;;;;;;5056471;28;19911;-79
2021/05/23 13:55:57;;;;;;;;;;;19.30;99.90;;;;;;5057833;28;19940;-78
2021/05/23 13:58:23;;;;;;;;;;;19.40;99.70;;;;;;5056468;28;19908;-79
2021/05/23 14:00:48;;;;;;;;;;;19.10;99.80;;;;;;5056613;28;20038;-80
2021/05/23 14:03:21;;;;;;;;;;;19.10;97.20;;;;;;5055490;28;19912;-79
2021/05/23 14:05:54;;;;;;;;;;;19.10;98.30;;;;;;5056706;28;19912;-81